sensor_id;sensor_type;location;lat;lon;timestamp;P1;durP1;ratioP1;P2;durP2;ratioP2
1523;SDS011;755;53.658;10.118;2023-02-28T00:01:02;14.98;;;5.85;;
1523;SDS011;755;53.658;10.118;2023-02-28T00:11:06;14.13;;;6.20;;
1523;SDS011;755;53.658;10.118;2023-02-28T00:21:11;15.55;;;5.50;;
1523;SDS011;755;53.658;10.118;2023-02-28T00:31:13;13.57;;;4.85;;
1523;SDS011;755;53.658;10.118;2023-02-28T00:41:17;12.73;;;4.22;;
1523;SDS011;755;53.658;10.118;2023-02-28T00:51:19;10.05;;;4.53;;
1523;SDS011;755;53.658;10.118;2023-02-28T01:01:22;12.88;;;4.97;;
1523;SDS011;755;53.658;10.118;2023-02-28T01:11:25;15.13;;;5.18;;
1523;SDS011;755;53.658;10.118;2023-02-28T01:21:30;14.65;;;4.85;;
1523;SDS011;755;53.658;10.118;2023-02-28T01:31:32;9.85;;;4.25;;
1523;SDS011;755;53.658;10.118;2023-02-28T01:41:35;16.67;;;4.93;;
1523;SDS011;755;53.658;10.118;2023-02-28T01:51:39;15.35;;;4.45;;
1523;SDS011;755;53.658;10.118;2023-02-28T02:01:47;11.77;;;3.50;;
1523;SDS011;755;53.658;10.118;2023-02-28T02:11:49;14.45;;;4.22;;
1523;SDS011;755;53.658;10.118;2023-02-28T02:22:05;9.60;;;3.55;;
1523;SDS011;755;53.658;10.118;2023-02-28T02:32:28;8.38;;;4.03;;
1523;SDS011;755;53.658;10.118;2023-02-28T02:42:47;8.60;;;3.72;;
1523;SDS011;755;53.658;10.118;2023-02-28T02:52:56;11.40;;;2.80;;
1523;SDS011;755;53.658;10.118;2023-02-28T03:03:02;14.30;;;3.53;;
1523;SDS011;755;53.658;10.118;2023-02-28T03:13:12;6.50;;;2.90;;
1523;SDS011;755;53.658;10.118;2023-02-28T03:23:23;7.45;;;2.75;;
1523;SDS011;755;53.658;10.118;2023-02-28T03:33:40;6.65;;;2.53;;
1523;SDS011;755;53.658;10.118;2023-02-28T03:43:49;7.38;;;3.05;;
1523;SDS011;755;53.658;10.118;2023-02-28T03:53:55;7.75;;;2.15;;
1523;SDS011;755;53.658;10.118;2023-02-28T04:04:02;8.55;;;2.47;;
1523;SDS011;755;53.658;10.118;2023-02-28T04:14:06;6.88;;;2.50;;
1523;SDS011;755;53.658;10.118;2023-02-28T04:24:12;6.28;;;2.17;;
1523;SDS011;755;53.658;10.118;2023-02-28T04:44:20;6.72;;;2.15;;
1523;SDS011;755;53.658;10.118;2023-02-28T04:54:23;4.47;;;1.80;;
1523;SDS011;755;53.658;10.118;2023-02-28T05:04:26;4.40;;;1.58;;
1523;SDS011;755;53.658;10.118;2023-02-28T05:14:28;5.30;;;2.08;;
1523;SDS011;755;53.658;10.118;2023-02-28T05:24:32;8.52;;;2.50;;
1523;SDS011;755;53.658;10.118;2023-02-28T05:34:34;6.57;;;2.33;;
1523;SDS011;755;53.658;10.118;2023-02-28T05:44:38;5.65;;;2.03;;
1523;SDS011;755;53.658;10.118;2023-02-28T05:54:40;4.55;;;2.42;;
1523;SDS011;755;53.658;10.118;2023-02-28T06:04:44;6.30;;;2.92;;
1523;SDS011;755;53.658;10.118;2023-02-28T06:14:47;5.00;;;2.35;;
1523;SDS011;755;53.658;10.118;2023-02-28T06:24:50;4.03;;;2.10;;
1523;SDS011;755;53.658;10.118;2023-02-28T06:34:53;8.90;;;2.20;;
1523;SDS011;755;53.658;10.118;2023-02-28T06:44:58;10.68;;;3.10;;
1523;SDS011;755;53.658;10.118;2023-02-28T06:55:03;8.05;;;2.47;;
1523;SDS011;755;53.658;10.118;2023-02-28T07:05:08;10.60;;;3.08;;
1523;SDS011;755;53.658;10.118;2023-02-28T07:15:10;15.73;;;3.10;;
1523;SDS011;755;53.658;10.118;2023-02-28T07:25:14;9.18;;;3.75;;
1523;SDS011;755;53.658;10.118;2023-02-28T07:35:16;48.47;;;15.40;;
1523;SDS011;755;53.658;10.118;2023-02-28T07:45:20;16.75;;;6.13;;
1523;SDS011;755;53.658;10.118;2023-02-28T07:55:22;23.42;;;7.18;;
1523;SDS011;755;53.658;10.118;2023-02-28T08:05:26;15.68;;;5.30;;
1523;SDS011;755;53.658;10.118;2023-02-28T08:15:30;15.80;;;5.32;;
1523;SDS011;755;53.658;10.118;2023-02-28T08:25:36;15.23;;;5.05;;
1523;SDS011;755;53.658;10.118;2023-02-28T08:35:39;9.02;;;3.85;;
1523;SDS011;755;53.658;10.118;2023-02-28T08:45:42;6.80;;;2.75;;
1523;SDS011;755;53.658;10.118;2023-02-28T08:55:44;12.85;;;2.72;;
1523;SDS011;755;53.658;10.118;2023-02-28T09:05:58;10.13;;;3.50;;
1523;SDS011;755;53.658;10.118;2023-02-28T09:16:01;4.88;;;2.92;;
1523;SDS011;755;53.658;10.118;2023-02-28T09:26:06;7.22;;;2.78;;
1523;SDS011;755;53.658;10.118;2023-02-28T09:36:09;8.02;;;1.92;;
1523;SDS011;755;53.658;10.118;2023-02-28T09:46:16;4.15;;;1.83;;
1523;SDS011;755;53.658;10.118;2023-02-28T09:56:33;7.18;;;1.90;;
1523;SDS011;755;53.658;10.118;2023-02-28T10:06:56;5.13;;;1.42;;
1523;SDS011;755;53.658;10.118;2023-02-28T10:17:06;2.10;;;1.42;;
1523;SDS011;755;53.658;10.118;2023-02-28T10:27:31;9.23;;;2.20;;
1523;SDS011;755;53.658;10.118;2023-02-28T10:37:37;5.07;;;1.60;;
1523;SDS011;755;53.658;10.118;2023-02-28T10:47:51;4.80;;;1.50;;
1523;SDS011;755;53.658;10.118;2023-02-28T10:58:01;7.15;;;1.80;;
1523;SDS011;755;53.658;10.118;2023-02-28T11:08:11;4.07;;;1.63;;
1523;SDS011;755;53.658;10.118;2023-02-28T11:18:20;5.22;;;1.90;;
1523;SDS011;755;53.658;10.118;2023-02-28T11:28:27;5.43;;;1.80;;
1523;SDS011;755;53.658;10.118;2023-02-28T11:38:32;3.97;;;1.40;;
1523;SDS011;755;53.658;10.118;2023-02-28T11:48:40;4.45;;;1.42;;
1523;SDS011;755;53.658;10.118;2023-02-28T11:58:50;4.07;;;1.67;;
1523;SDS011;755;53.658;10.118;2023-02-28T12:09:11;4.95;;;1.50;;
1523;SDS011;755;53.658;10.118;2023-02-28T12:19:25;2.95;;;1.30;;
1523;SDS011;755;53.658;10.118;2023-02-28T12:29:34;3.95;;;1.73;;
1523;SDS011;755;53.658;10.118;2023-02-28T12:39:45;5.63;;;1.73;;
1523;SDS011;755;53.658;10.118;2023-02-28T12:49:56;12.63;;;4.25;;
1523;SDS011;755;53.658;10.118;2023-02-28T13:00:03;4.22;;;1.70;;
1523;SDS011;755;53.658;10.118;2023-02-28T13:10:15;5.43;;;2.30;;
1523;SDS011;755;53.658;10.118;2023-02-28T13:20:19;4.82;;;1.60;;
1523;SDS011;755;53.658;10.118;2023-02-28T13:51:44;2.13;;;1.50;;
1523;SDS011;755;53.658;10.118;2023-02-28T14:01:53;1.90;;;1.15;;
1523;SDS011;755;53.658;10.118;2023-02-28T14:22:51;3.90;;;1.48;;
1523;SDS011;755;53.658;10.118;2023-02-28T14:33:05;3.95;;;1.42;;
1523;SDS011;755;53.658;10.118;2023-02-28T14:43:24;3.85;;;1.65;;
1523;SDS011;755;53.658;10.118;2023-02-28T14:53:28;5.50;;;1.75;;
1523;SDS011;755;53.658;10.118;2023-02-28T15:03:38;4.10;;;1.63;;
1523;SDS011;755;53.658;10.118;2023-02-28T15:13:42;3.73;;;2.07;;
1523;SDS011;755;53.658;10.118;2023-02-28T15:23:50;3.58;;;2.22;;
1523;SDS011;755;53.658;10.118;2023-02-28T15:33:55;6.38;;;2.58;;
1523;SDS011;755;53.658;10.118;2023-02-28T15:44:23;4.20;;;2.22;;
1523;SDS011;755;53.658;10.118;2023-02-28T15:54:31;6.40;;;2.53;;
1523;SDS011;755;53.658;10.118;2023-02-28T16:04:37;6.00;;;1.93;;
1523;SDS011;755;53.658;10.118;2023-02-28T16:14:57;7.57;;;2.08;;
1523;SDS011;755;53.658;10.118;2023-02-28T16:35:09;7.63;;;1.65;;
1523;SDS011;755;53.658;10.118;2023-02-28T16:45:16;9.27;;;2.37;;
1523;SDS011;755;53.658;10.118;2023-02-28T16:55:20;4.15;;;1.10;;
1523;SDS011;755;53.658;10.118;2023-02-28T17:05:25;9.75;;;2.58;;
1523;SDS011;755;53.658;10.118;2023-02-28T17:15:29;8.27;;;3.15;;
1523;SDS011;755;53.658;10.118;2023-02-28T17:25:32;9.65;;;3.65;;
1523;SDS011;755;53.658;10.118;2023-02-28T17:35:34;13.20;;;4.18;;
1523;SDS011;755;53.658;10.118;2023-02-28T17:45:38;16.38;;;5.15;;
1523;SDS011;755;53.658;10.118;2023-02-28T17:55:40;23.77;;;6.18;;
1523;SDS011;755;53.658;10.118;2023-02-28T18:05:44;25.73;;;6.10;;
1523;SDS011;755;53.658;10.118;2023-02-28T18:15:46;26.48;;;6.43;;
1523;SDS011;755;53.658;10.118;2023-02-28T18:25:50;22.63;;;4.97;;
1523;SDS011;755;53.658;10.118;2023-02-28T18:35:55;14.07;;;4.28;;
1523;SDS011;755;53.658;10.118;2023-02-28T18:46:02;14.38;;;3.95;;
1523;SDS011;755;53.658;10.118;2023-02-28T18:56:05;15.23;;;4.22;;
1523;SDS011;755;53.658;10.118;2023-02-28T19:06:10;11.15;;;3.33;;
1523;SDS011;755;53.658;10.118;2023-02-28T19:16:13;18.23;;;4.80;;
1523;SDS011;755;53.658;10.118;2023-02-28T19:26:18;11.60;;;4.72;;
1523;SDS011;755;53.658;10.118;2023-02-28T19:36:22;15.85;;;4.95;;
1523;SDS011;755;53.658;10.118;2023-02-28T19:46:25;13.23;;;4.57;;
1523;SDS011;755;53.658;10.118;2023-02-28T19:56:28;12.88;;;4.72;;
1523;SDS011;755;53.658;10.118;2023-02-28T20:06:32;10.32;;;5.25;;
1523;SDS011;755;53.658;10.118;2023-02-28T20:16:35;15.18;;;6.10;;
1523;SDS011;755;53.658;10.118;2023-02-28T20:26:38;16.45;;;7.25;;
1523;SDS011;755;53.658;10.118;2023-02-28T20:36:41;21.55;;;7.05;;
1523;SDS011;755;53.658;10.118;2023-02-28T20:46:45;17.25;;;8.30;;
1523;SDS011;755;53.658;10.118;2023-02-28T20:56:47;25.00;;;9.52;;
1523;SDS011;755;53.658;10.118;2023-02-28T21:06:50;28.08;;;10.55;;
1523;SDS011;755;53.658;10.118;2023-02-28T21:16:52;24.75;;;10.52;;
1523;SDS011;755;53.658;10.118;2023-02-28T21:26:57;29.77;;;11.93;;
1523;SDS011;755;53.658;10.118;2023-02-28T21:37:06;35.20;;;11.52;;
1523;SDS011;755;53.658;10.118;2023-02-28T21:47:10;29.20;;;11.38;;
1523;SDS011;755;53.658;10.118;2023-02-28T21:57:12;30.08;;;11.02;;
1523;SDS011;755;53.658;10.118;2023-02-28T22:07:16;28.90;;;10.77;;
1523;SDS011;755;53.658;10.118;2023-02-28T22:17:18;31.75;;;12.10;;
1523;SDS011;755;53.658;10.118;2023-02-28T22:27:21;30.50;;;11.43;;
1523;SDS011;755;53.658;10.118;2023-02-28T22:37:23;24.65;;;10.90;;
1523;SDS011;755;53.658;10.118;2023-02-28T22:47:26;26.10;;;11.05;;
1523;SDS011;755;53.658;10.118;2023-02-28T22:57:29;25.83;;;12.35;;
1523;SDS011;755;53.658;10.118;2023-02-28T23:07:33;24.10;;;10.63;;
1523;SDS011;755;53.658;10.118;2023-02-28T23:17:35;22.08;;;10.45;;
1523;SDS011;755;53.658;10.118;2023-02-28T23:27:39;30.55;;;10.80;;
1523;SDS011;755;53.658;10.118;2023-02-28T23:37:41;31.65;;;10.60;;
1523;SDS011;755;53.658;10.118;2023-02-28T23:47:45;34.90;;;11.32;;
1523;SDS011;755;53.658;10.118;2023-02-28T23:57:47;28.73;;;9.70;;
